sensor_id;sensor_type;location;lat;lon;timestamp;temperature;humidity
75471;HTU21D;64051;46.320;48.028;2023-04-25T00:00:46;16.91;55.50
75471;HTU21D;64051;46.320;48.028;2023-04-25T00:03:12;16.96;55.49
75471;HTU21D;64051;46.320;48.028;2023-04-25T00:05:39;17.01;55.40
75471;HTU21D;64051;46.320;48.028;2023-04-25T00:08:05;17.03;55.36
75471;HTU21D;64051;46.320;48.028;2023-04-25T00:10:31;17.05;55.31
75471;HTU21D;64051;46.320;48.028;2023-04-25T00:12:57;17.09;55.28
75471;HTU21D;64051;46.320;48.028;2023-04-25T00:15:23;17.13;55.21
75471;HTU21D;64051;46.320;48.028;2023-04-25T00:17:49;17.14;55.16
75471;HTU21D;64051;46.320;48.028;2023-04-25T00:20:18;17.16;55.12
75471;HTU21D;64051;46.320;48.028;2023-04-25T00:22:44;17.17;55.10
75471;HTU21D;64051;46.320;48.028;2023-04-25T00:25:10;17.17;55.08
75471;HTU21D;64051;46.320;48.028;2023-04-25T00:27:36;17.18;55.06
75471;HTU21D;64051;46.320;48.028;2023-04-25T00:30:02;17.19;55.06
75471;HTU21D;64051;46.320;48.028;2023-04-25T00:32:28;17.17;55.04
75471;HTU21D;64051;46.320;48.028;2023-04-25T00:34:54;17.20;55.04
75471;HTU21D;64051;46.320;48.028;2023-04-25T00:37:21;17.22;55.02
75471;HTU21D;64051;46.320;48.028;2023-04-25T00:39:47;17.23;54.99
75471;HTU21D;64051;46.320;48.028;2023-04-25T00:42:13;17.24;54.99
75471;HTU21D;64051;46.320;48.028;2023-04-25T00:44:39;17.28;54.98
75471;HTU21D;64051;46.320;48.028;2023-04-25T00:47:07;17.28;54.96
75471;HTU21D;64051;46.320;48.028;2023-04-25T00:49:33;17.30;54.98
75471;HTU21D;64051;46.320;48.028;2023-04-25T00:51:59;17.29;54.96
75471;HTU21D;64051;46.320;48.028;2023-04-25T00:54:25;17.30;54.97
75471;HTU21D;64051;46.320;48.028;2023-04-25T00:56:52;17.31;54.94
75471;HTU21D;64051;46.320;48.028;2023-04-25T00:59:19;17.33;54.94
75471;HTU21D;64051;46.320;48.028;2023-04-25T01:01:45;17.36;54.93
75471;HTU21D;64051;46.320;48.028;2023-04-25T01:04:11;17.34;54.91
75471;HTU21D;64051;46.320;48.028;2023-04-25T01:06:37;17.38;54.84
75471;HTU21D;64051;46.320;48.028;2023-04-25T01:09:03;17.40;54.78
75471;HTU21D;64051;46.320;48.028;2023-04-25T01:11:30;17.46;54.75
75471;HTU21D;64051;46.320;48.028;2023-04-25T01:13:56;17.49;54.68
75471;HTU21D;64051;46.320;48.028;2023-04-25T01:16:23;17.54;54.61
75471;HTU21D;64051;46.320;48.028;2023-04-25T01:18:52;17.55;54.55
75471;HTU21D;64051;46.320;48.028;2023-04-25T01:21:18;17.61;54.49
75471;HTU21D;64051;46.320;48.028;2023-04-25T01:23:46;17.64;54.42
75471;HTU21D;64051;46.320;48.028;2023-04-25T01:26:13;17.66;54.39
75471;HTU21D;64051;46.320;48.028;2023-04-25T01:28:40;17.68;54.37
75471;HTU21D;64051;46.320;48.028;2023-04-25T01:31:11;17.72;54.35
75471;HTU21D;64051;46.320;48.028;2023-04-25T01:33:37;17.72;54.31
75471;HTU21D;64051;46.320;48.028;2023-04-25T01:36:04;17.74;54.30
75471;HTU21D;64051;46.320;48.028;2023-04-25T01:38:30;17.74;54.30
75471;HTU21D;64051;46.320;48.028;2023-04-25T01:40:57;17.76;54.31
75471;HTU21D;64051;46.320;48.028;2023-04-25T01:43:23;17.77;54.30
75471;HTU21D;64051;46.320;48.028;2023-04-25T01:45:50;17.80;54.28
75471;HTU21D;64051;46.320;48.028;2023-04-25T01:48:17;17.82;54.29
75471;HTU21D;64051;46.320;48.028;2023-04-25T01:50:44;17.82;54.26
75471;HTU21D;64051;46.320;48.028;2023-04-25T01:53:13;17.84;54.26
75471;HTU21D;64051;46.320;48.028;2023-04-25T01:55:40;17.84;54.28
75471;HTU21D;64051;46.320;48.028;2023-04-25T01:58:10;17.85;54.26
75471;HTU21D;64051;46.320;48.028;2023-04-25T02:00:58;17.85;54.28
75471;HTU21D;64051;46.320;48.028;2023-04-25T02:03:31;17.85;54.30
75471;HTU21D;64051;46.320;48.028;2023-04-25T02:05:58;17.85;54.30
75471;HTU21D;64051;46.320;48.028;2023-04-25T02:08:24;17.85;54.30
75471;HTU21D;64051;46.320;48.028;2023-04-25T02:10:54;17.84;54.30
75471;HTU21D;64051;46.320;48.028;2023-04-25T02:13:20;17.81;54.32
75471;HTU21D;64051;46.320;48.028;2023-04-25T02:15:57;17.80;54.36
75471;HTU21D;64051;46.320;48.028;2023-04-25T02:18:23;17.77;54.39
75471;HTU21D;64051;46.320;48.028;2023-04-25T02:20:49;17.74;54.41
75471;HTU21D;64051;46.320;48.028;2023-04-25T02:23:15;17.68;54.46
75471;HTU21D;64051;46.320;48.028;2023-04-25T02:25:41;17.66;54.52
75471;HTU21D;64051;46.320;48.028;2023-04-25T02:28:07;17.62;54.58
75471;HTU21D;64051;46.320;48.028;2023-04-25T02:30:34;17.56;54.65
75471;HTU21D;64051;46.320;48.028;2023-04-25T02:33:04;17.52;54.75
75471;HTU21D;64051;46.320;48.028;2023-04-25T02:35:30;17.48;54.83
75471;HTU21D;64051;46.320;48.028;2023-04-25T02:37:56;17.46;54.91
75471;HTU21D;64051;46.320;48.028;2023-04-25T02:40:22;17.45;54.97
75471;HTU21D;64051;46.320;48.028;2023-04-25T02:42:48;17.41;55.04
75471;HTU21D;64051;46.320;48.028;2023-04-25T02:45:14;17.39;55.11
75471;HTU21D;64051;46.320;48.028;2023-04-25T02:47:40;17.39;55.15
75471;HTU21D;64051;46.320;48.028;2023-04-25T02:50:06;17.39;55.19
75471;HTU21D;64051;46.320;48.028;2023-04-25T02:52:32;17.38;55.24
75471;HTU21D;64051;46.320;48.028;2023-04-25T02:55:08;17.35;55.29
75471;HTU21D;64051;46.320;48.028;2023-04-25T02:57:35;17.35;55.36
75471;HTU21D;64051;46.320;48.028;2023-04-25T03:00:01;17.33;55.43
75471;HTU21D;64051;46.320;48.028;2023-04-25T03:02:27;17.34;55.51
75471;HTU21D;64051;46.320;48.028;2023-04-25T03:04:53;17.35;55.55
75471;HTU21D;64051;46.320;48.028;2023-04-25T03:07:19;17.35;55.59
75471;HTU21D;64051;46.320;48.028;2023-04-25T03:09:47;17.37;55.62
75471;HTU21D;64051;46.320;48.028;2023-04-25T03:12:13;17.38;55.68
75471;HTU21D;64051;46.320;48.028;2023-04-25T03:14:45;17.43;55.70
75471;HTU21D;64051;46.320;48.028;2023-04-25T03:17:14;17.46;55.74
75471;HTU21D;64051;46.320;48.028;2023-04-25T03:19:40;17.50;55.77
75471;HTU21D;64051;46.320;48.028;2023-04-25T03:22:06;17.54;55.80
75471;HTU21D;64051;46.320;48.028;2023-04-25T03:24:32;17.58;55.80
75471;HTU21D;64051;46.320;48.028;2023-04-25T03:26:58;17.63;55.81
75471;HTU21D;64051;46.320;48.028;2023-04-25T03:29:24;17.67;55.83
75471;HTU21D;64051;46.320;48.028;2023-04-25T03:31:55;17.73;55.87
75471;HTU21D;64051;46.320;48.028;2023-04-25T03:34:21;17.77;55.87
75471;HTU21D;64051;46.320;48.028;2023-04-25T03:36:47;17.82;55.88
75471;HTU21D;64051;46.320;48.028;2023-04-25T03:39:13;17.88;55.90
75471;HTU21D;64051;46.320;48.028;2023-04-25T03:41:46;17.92;55.90
75471;HTU21D;64051;46.320;48.028;2023-04-25T03:44:14;17.94;55.92
75471;HTU21D;64051;46.320;48.028;2023-04-25T03:46:40;17.95;55.94
75471;HTU21D;64051;46.320;48.028;2023-04-25T03:49:06;17.95;55.98
75471;HTU21D;64051;46.320;48.028;2023-04-25T03:52:07;17.95;56.02
75471;HTU21D;64051;46.320;48.028;2023-04-25T03:54:37;17.96;56.09
75471;HTU21D;64051;46.320;48.028;2023-04-25T03:57:10;17.97;56.12
75471;HTU21D;64051;46.320;48.028;2023-04-25T03:59:38;17.97;56.16
75471;HTU21D;64051;46.320;48.028;2023-04-25T04:02:05;18.00;56.20
75471;HTU21D;64051;46.320;48.028;2023-04-25T04:04:34;18.05;56.23
75471;HTU21D;64051;46.320;48.028;2023-04-25T04:07:00;18.09;56.25
75471;HTU21D;64051;46.320;48.028;2023-04-25T04:09:29;18.12;56.27
75471;HTU21D;64051;46.320;48.028;2023-04-25T04:11:57;18.17;56.29
75471;HTU21D;64051;46.320;48.028;2023-04-25T04:14:23;18.21;56.32
75471;HTU21D;64051;46.320;48.028;2023-04-25T04:16:53;18.23;56.36
75471;HTU21D;64051;46.320;48.028;2023-04-25T04:19:21;18.26;56.34
75471;HTU21D;64051;46.320;48.028;2023-04-25T04:22:01;18.26;56.36
75471;HTU21D;64051;46.320;48.028;2023-04-25T04:24:27;18.28;56.39
75471;HTU21D;64051;46.320;48.028;2023-04-25T04:27:02;18.28;56.43
75471;HTU21D;64051;46.320;48.028;2023-04-25T04:29:45;18.29;56.48
75471;HTU21D;64051;46.320;48.028;2023-04-25T04:32:22;18.29;56.52
75471;HTU21D;64051;46.320;48.028;2023-04-25T04:34:49;18.28;56.55
75471;HTU21D;64051;46.320;48.028;2023-04-25T04:37:17;18.27;56.59
75471;HTU21D;64051;46.320;48.028;2023-04-25T04:39:44;18.24;56.64
75471;HTU21D;64051;46.320;48.028;2023-04-25T04:42:20;18.19;56.71
75471;HTU21D;64051;46.320;48.028;2023-04-25T04:45:13;18.14;56.78
75471;HTU21D;64051;46.320;48.028;2023-04-25T04:47:46;18.12;56.88
75471;HTU21D;64051;46.320;48.028;2023-04-25T04:50:32;18.06;56.96
75471;HTU21D;64051;46.320;48.028;2023-04-25T04:53:11;18.05;57.02
75471;HTU21D;64051;46.320;48.028;2023-04-25T04:56:04;18.04;57.11
75471;HTU21D;64051;46.320;48.028;2023-04-25T04:59:06;18.02;57.17
75471;HTU21D;64051;46.320;48.028;2023-04-25T05:02:02;18.02;57.22
75471;HTU21D;64051;46.320;48.028;2023-04-25T05:04:52;17.99;57.30
75471;HTU21D;64051;46.320;48.028;2023-04-25T05:07:38;17.98;57.34
75471;HTU21D;64051;46.320;48.028;2023-04-25T05:10:10;18.00;57.40
75471;HTU21D;64051;46.320;48.028;2023-04-25T05:12:36;18.03;57.47
75471;HTU21D;64051;46.320;48.028;2023-04-25T05:15:17;18.09;57.54
75471;HTU21D;64051;46.320;48.028;2023-04-25T05:18:02;18.18;57.57
75471;HTU21D;64051;46.320;48.028;2023-04-25T05:20:44;18.26;57.60
75471;HTU21D;64051;46.320;48.028;2023-04-25T05:23:22;18.32;57.58
75471;HTU21D;64051;46.320;48.028;2023-04-25T05:26:14;18.34;57.54
75471;HTU21D;64051;46.320;48.028;2023-04-25T05:29:03;18.33;57.55
75471;HTU21D;64051;46.320;48.028;2023-04-25T05:31:45;18.29;57.59
75471;HTU21D;64051;46.320;48.028;2023-04-25T05:34:17;18.24;57.67
75471;HTU21D;64051;46.320;48.028;2023-04-25T05:36:54;18.18;57.68
75471;HTU21D;64051;46.320;48.028;2023-04-25T05:39:23;18.11;57.77
75471;HTU21D;64051;46.320;48.028;2023-04-25T05:42:08;18.05;57.91
75471;HTU21D;64051;46.320;48.028;2023-04-25T05:44:49;17.98;58.01
75471;HTU21D;64051;46.320;48.028;2023-04-25T05:47:31;17.88;58.16
75471;HTU21D;64051;46.320;48.028;2023-04-25T05:50:20;17.79;58.34
75471;HTU21D;64051;46.320;48.028;2023-04-25T05:52:56;17.77;58.45
75471;HTU21D;64051;46.320;48.028;2023-04-25T05:55:29;17.76;58.58
75471;HTU21D;64051;46.320;48.028;2023-04-25T05:57:58;17.75;58.67
75471;HTU21D;64051;46.320;48.028;2023-04-25T06:00:25;17.75;58.75
75471;HTU21D;64051;46.320;48.028;2023-04-25T06:02:51;17.76;58.84
75471;HTU21D;64051;46.320;48.028;2023-04-25T06:05:18;17.74;58.93
75471;HTU21D;64051;46.320;48.028;2023-04-25T06:07:46;17.75;59.03
75471;HTU21D;64051;46.320;48.028;2023-04-25T06:10:20;17.73;59.14
75471;HTU21D;64051;46.320;48.028;2023-04-25T06:12:46;17.70;59.20
75471;HTU21D;64051;46.320;48.028;2023-04-25T06:15:15;17.70;59.29
75471;HTU21D;64051;46.320;48.028;2023-04-25T06:17:43;17.68;59.39
75471;HTU21D;64051;46.320;48.028;2023-04-25T06:20:09;17.69;59.48
75471;HTU21D;64051;46.320;48.028;2023-04-25T06:22:35;17.68;59.56
75471;HTU21D;64051;46.320;48.028;2023-04-25T06:25:01;17.68;59.66
75471;HTU21D;64051;46.320;48.028;2023-04-25T06:27:29;17.67;59.74
75471;HTU21D;64051;46.320;48.028;2023-04-25T06:29:55;17.68;59.83
75471;HTU21D;64051;46.320;48.028;2023-04-25T06:32:24;17.68;59.96
75471;HTU21D;64051;46.320;48.028;2023-04-25T06:34:51;17.69;60.00
75471;HTU21D;64051;46.320;48.028;2023-04-25T06:37:17;17.69;60.08
75471;HTU21D;64051;46.320;48.028;2023-04-25T06:39:44;17.70;60.17
75471;HTU21D;64051;46.320;48.028;2023-04-25T06:42:10;17.69;60.23
75471;HTU21D;64051;46.320;48.028;2023-04-25T06:44:59;17.69;60.30
75471;HTU21D;64051;46.320;48.028;2023-04-25T06:47:29;17.66;60.39
75471;HTU21D;64051;46.320;48.028;2023-04-25T06:49:55;17.64;60.50
75471;HTU21D;64051;46.320;48.028;2023-04-25T06:52:21;17.61;60.63
75471;HTU21D;64051;46.320;48.028;2023-04-25T06:54:49;17.59;60.76
75471;HTU21D;64051;46.320;48.028;2023-04-25T06:57:28;17.56;60.87
75471;HTU21D;64051;46.320;48.028;2023-04-25T07:00:00;17.54;60.97
75471;HTU21D;64051;46.320;48.028;2023-04-25T07:02:26;17.52;61.11
75471;HTU21D;64051;46.320;48.028;2023-04-25T07:04:55;17.50;61.19
75471;HTU21D;64051;46.320;48.028;2023-04-25T07:07:25;17.47;61.28
75471;HTU21D;64051;46.320;48.028;2023-04-25T07:09:54;17.46;61.38
75471;HTU21D;64051;46.320;48.028;2023-04-25T07:12:21;17.44;61.50
75471;HTU21D;64051;46.320;48.028;2023-04-25T07:14:48;17.46;61.58
75471;HTU21D;64051;46.320;48.028;2023-04-25T07:17:14;17.46;61.68
75471;HTU21D;64051;46.320;48.028;2023-04-25T07:19:41;17.46;61.78
75471;HTU21D;64051;46.320;48.028;2023-04-25T07:22:10;17.45;61.83
75471;HTU21D;64051;46.320;48.028;2023-04-25T07:24:39;17.40;61.89
75471;HTU21D;64051;46.320;48.028;2023-04-25T07:27:06;17.37;62.00
75471;HTU21D;64051;46.320;48.028;2023-04-25T07:29:47;17.36;62.12
75471;HTU21D;64051;46.320;48.028;2023-04-25T07:32:14;17.30;62.14
75471;HTU21D;64051;46.320;48.028;2023-04-25T07:34:42;17.26;62.22
75471;HTU21D;64051;46.320;48.028;2023-04-25T07:37:07;17.20;62.31
75471;HTU21D;64051;46.320;48.028;2023-04-25T07:39:43;17.16;62.41
75471;HTU21D;64051;46.320;48.028;2023-04-25T07:42:11;17.14;62.52
75471;HTU21D;64051;46.320;48.028;2023-04-25T07:44:41;17.09;62.57
75471;HTU21D;64051;46.320;48.028;2023-04-25T07:47:13;17.06;62.72
75471;HTU21D;64051;46.320;48.028;2023-04-25T07:49:40;17.04;62.77
75471;HTU21D;64051;46.320;48.028;2023-04-25T07:52:06;17.04;62.84
75471;HTU21D;64051;46.320;48.028;2023-04-25T07:54:37;17.00;62.96
75471;HTU21D;64051;46.320;48.028;2023-04-25T07:57:14;16.98;63.02
75471;HTU21D;64051;46.320;48.028;2023-04-25T07:59:40;16.96;63.05
75471;HTU21D;64051;46.320;48.028;2023-04-25T08:02:06;16.96;63.13
75471;HTU21D;64051;46.320;48.028;2023-04-25T08:04:35;16.98;63.21
75471;HTU21D;64051;46.320;48.028;2023-04-25T08:07:03;16.96;63.29
75471;HTU21D;64051;46.320;48.028;2023-04-25T08:09:43;16.98;63.32
75471;HTU21D;64051;46.320;48.028;2023-04-25T08:12:16;16.96;63.65
75471;HTU21D;64051;46.320;48.028;2023-04-25T08:14:43;16.95;63.33
75471;HTU21D;64051;46.320;48.028;2023-04-25T08:17:10;16.94;63.41
75471;HTU21D;64051;46.320;48.028;2023-04-25T08:19:40;16.93;63.49
75471;HTU21D;64051;46.320;48.028;2023-04-25T08:22:10;16.91;63.51
75471;HTU21D;64051;46.320;48.028;2023-04-25T08:24:52;16.88;63.60
75471;HTU21D;64051;46.320;48.028;2023-04-25T08:27:18;16.86;63.66
75471;HTU21D;64051;46.320;48.028;2023-04-25T08:29:47;16.87;63.73
75471;HTU21D;64051;46.320;48.028;2023-04-25T08:32:14;16.86;63.74
75471;HTU21D;64051;46.320;48.028;2023-04-25T08:34:48;16.86;63.84
75471;HTU21D;64051;46.320;48.028;2023-04-25T08:37:20;16.91;64.03
75471;HTU21D;64051;46.320;48.028;2023-04-25T08:39:55;16.98;64.09
75471;HTU21D;64051;46.320;48.028;2023-04-25T08:42:27;17.04;64.18
75471;HTU21D;64051;46.320;48.028;2023-04-25T08:44:59;17.09;64.19
75471;HTU21D;64051;46.320;48.028;2023-04-25T08:47:33;17.13;64.11
75471;HTU21D;64051;46.320;48.028;2023-04-25T08:50:02;17.17;64.18
75471;HTU21D;64051;46.320;48.028;2023-04-25T08:52:36;17.22;64.24
75471;HTU21D;64051;46.320;48.028;2023-04-25T08:55:03;17.25;64.18
75471;HTU21D;64051;46.320;48.028;2023-04-25T08:57:32;17.24;64.14
75471;HTU21D;64051;46.320;48.028;2023-04-25T09:00:03;17.23;64.24
75471;HTU21D;64051;46.320;48.028;2023-04-25T09:02:39;17.23;64.24
75471;HTU21D;64051;46.320;48.028;2023-04-25T09:05:07;17.21;64.41
75471;HTU21D;64051;46.320;48.028;2023-04-25T09:07:35;17.26;64.66
75471;HTU21D;64051;46.320;48.028;2023-04-25T09:10:01;17.36;64.63
75471;HTU21D;64051;46.320;48.028;2023-04-25T09:12:31;17.40;64.50
75471;HTU21D;64051;46.320;48.028;2023-04-25T09:15:08;17.37;64.63
75471;HTU21D;64051;46.320;48.028;2023-04-25T09:18:04;17.39;64.62
75471;HTU21D;64051;46.320;48.028;2023-04-25T09:20:43;17.39;64.72
75471;HTU21D;64051;46.320;48.028;2023-04-25T09:23:14;17.39;64.71
75471;HTU21D;64051;46.320;48.028;2023-04-25T09:25:40;17.40;64.69
75471;HTU21D;64051;46.320;48.028;2023-04-25T09:28:09;17.46;64.93
75471;HTU21D;64051;46.320;48.028;2023-04-25T09:30:36;17.51;64.96
75471;HTU21D;64051;46.320;48.028;2023-04-25T09:33:12;17.55;64.89
75471;HTU21D;64051;46.320;48.028;2023-04-25T09:35:46;17.54;64.89
75471;HTU21D;64051;46.320;48.028;2023-04-25T09:38:39;17.49;64.89
75471;HTU21D;64051;46.320;48.028;2023-04-25T09:41:13;17.45;64.98
75471;HTU21D;64051;46.320;48.028;2023-04-25T09:43:45;17.49;65.16
75471;HTU21D;64051;46.320;48.028;2023-04-25T09:46:12;17.56;65.18
75471;HTU21D;64051;46.320;48.028;2023-04-25T09:48:49;17.62;65.21
75471;HTU21D;64051;46.320;48.028;2023-04-25T09:51:17;17.68;65.12
75471;HTU21D;64051;46.320;48.028;2023-04-25T09:53:46;17.73;65.14
75471;HTU21D;64051;46.320;48.028;2023-04-25T09:56:39;17.78;65.24
75471;HTU21D;64051;46.320;48.028;2023-04-25T09:59:12;17.83;65.18
75471;HTU21D;64051;46.320;48.028;2023-04-25T10:01:40;17.85;65.33
75471;HTU21D;64051;46.320;48.028;2023-04-25T10:04:19;17.97;65.38
75471;HTU21D;64051;46.320;48.028;2023-04-25T10:07:03;18.04;65.23
75471;HTU21D;64051;46.320;48.028;2023-04-25T10:09:31;18.00;65.06
75471;HTU21D;64051;46.320;48.028;2023-04-25T10:11:59;18.00;65.25
75471;HTU21D;64051;46.320;48.028;2023-04-25T10:14:26;18.07;65.30
75471;HTU21D;64051;46.320;48.028;2023-04-25T10:16:53;18.11;65.17
75471;HTU21D;64051;46.320;48.028;2023-04-25T10:19:20;18.12;65.13
75471;HTU21D;64051;46.320;48.028;2023-04-25T10:22:17;18.10;65.01
75471;HTU21D;64051;46.320;48.028;2023-04-25T10:24:45;18.05;64.95
75471;HTU21D;64051;46.320;48.028;2023-04-25T10:27:12;17.97;64.79
75471;HTU21D;64051;46.320;48.028;2023-04-25T10:29:41;17.91;64.88
75471;HTU21D;64051;46.320;48.028;2023-04-25T10:32:13;17.84;64.95
75471;HTU21D;64051;46.320;48.028;2023-04-25T10:34:45;17.78;65.13
75471;HTU21D;64051;46.320;48.028;2023-04-25T10:37:18;17.74;65.15
75471;HTU21D;64051;46.320;48.028;2023-04-25T10:39:50;17.74;65.19
75471;HTU21D;64051;46.320;48.028;2023-04-25T10:42:23;17.72;65.18
75471;HTU21D;64051;46.320;48.028;2023-04-25T10:45:04;17.69;65.28
75471;HTU21D;64051;46.320;48.028;2023-04-25T10:47:43;17.68;65.36
75471;HTU21D;64051;46.320;48.028;2023-04-25T10:50:16;17.68;65.31
75471;HTU21D;64051;46.320;48.028;2023-04-25T10:52:42;17.78;65.50
75471;HTU21D;64051;46.320;48.028;2023-04-25T10:55:10;17.88;65.26
75471;HTU21D;64051;46.320;48.028;2023-04-25T10:57:40;17.95;65.21
75471;HTU21D;64051;46.320;48.028;2023-04-25T11:00:17;17.93;65.10
75471;HTU21D;64051;46.320;48.028;2023-04-25T11:02:58;17.87;65.04
75471;HTU21D;64051;46.320;48.028;2023-04-25T11:05:35;17.77;65.04
75471;HTU21D;64051;46.320;48.028;2023-04-25T11:08:02;17.62;64.96
75471;HTU21D;64051;46.320;48.028;2023-04-25T11:10:30;17.49;65.07
75471;HTU21D;64051;46.320;48.028;2023-04-25T11:12:57;17.35;65.15
75471;HTU21D;64051;46.320;48.028;2023-04-25T11:15:29;17.21;65.27
75471;HTU21D;64051;46.320;48.028;2023-04-25T11:17:55;17.10;65.38
75471;HTU21D;64051;46.320;48.028;2023-04-25T11:20:22;17.01;65.53
75471;HTU21D;64051;46.320;48.028;2023-04-25T11:23:00;16.94;65.62
75471;HTU21D;64051;46.320;48.028;2023-04-25T11:25:28;16.87;65.65
75471;HTU21D;64051;46.320;48.028;2023-04-25T11:27:58;16.75;65.69
75471;HTU21D;64051;46.320;48.028;2023-04-25T11:30:29;16.67;65.80
75471;HTU21D;64051;46.320;48.028;2023-04-25T11:32:58;16.65;65.88
75471;HTU21D;64051;46.320;48.028;2023-04-25T11:35:25;16.62;66.01
75471;HTU21D;64051;46.320;48.028;2023-04-25T11:37:51;16.61;65.91
75471;HTU21D;64051;46.320;48.028;2023-04-25T11:40:19;16.59;65.92
75471;HTU21D;64051;46.320;48.028;2023-04-25T11:42:48;16.57;65.96
75471;HTU21D;64051;46.320;48.028;2023-04-25T11:45:17;16.51;66.02
75471;HTU21D;64051;46.320;48.028;2023-04-25T11:47:44;16.52;66.02
75471;HTU21D;64051;46.320;48.028;2023-04-25T11:50:10;16.51;66.04
75471;HTU21D;64051;46.320;48.028;2023-04-25T11:52:49;16.52;66.08
75471;HTU21D;64051;46.320;48.028;2023-04-25T11:55:17;16.52;66.01
75471;HTU21D;64051;46.320;48.028;2023-04-25T11:57:48;16.50;66.03
75471;HTU21D;64051;46.320;48.028;2023-04-25T12:00:19;16.46;66.02
75471;HTU21D;64051;46.320;48.028;2023-04-25T12:02:52;16.47;66.20
75471;HTU21D;64051;46.320;48.028;2023-04-25T12:05:25;16.48;66.17
75471;HTU21D;64051;46.320;48.028;2023-04-25T12:07:54;16.54;66.13
75471;HTU21D;64051;46.320;48.028;2023-04-25T12:10:21;16.57;66.11
75471;HTU21D;64051;46.320;48.028;2023-04-25T12:12:53;16.60;66.12
75471;HTU21D;64051;46.320;48.028;2023-04-25T12:15:25;16.62;66.07
75471;HTU21D;64051;46.320;48.028;2023-04-25T12:17:53;16.62;66.04
75471;HTU21D;64051;46.320;48.028;2023-04-25T12:20:24;16.63;66.04
75471;HTU21D;64051;46.320;48.028;2023-04-25T12:22:51;16.63;65.95
75471;HTU21D;64051;46.320;48.028;2023-04-25T12:25:39;16.64;66.01
75471;HTU21D;64051;46.320;48.028;2023-04-25T12:28:25;16.61;65.93
75471;HTU21D;64051;46.320;48.028;2023-04-25T12:31:02;16.59;65.90
75471;HTU21D;64051;46.320;48.028;2023-04-25T12:33:37;16.62;65.97
75471;HTU21D;64051;46.320;48.028;2023-04-25T12:36:11;16.62;65.87
75471;HTU21D;64051;46.320;48.028;2023-04-25T12:38:42;16.65;65.86
75471;HTU21D;64051;46.320;48.028;2023-04-25T12:41:14;16.67;65.83
75471;HTU21D;64051;46.320;48.028;2023-04-25T12:43:43;16.72;65.77
75471;HTU21D;64051;46.320;48.028;2023-04-25T12:46:12;16.72;65.78
75471;HTU21D;64051;46.320;48.028;2023-04-25T12:48:43;16.75;65.69
75471;HTU21D;64051;46.320;48.028;2023-04-25T12:51:17;16.76;65.69
75471;HTU21D;64051;46.320;48.028;2023-04-25T12:53:46;16.79;65.73
75471;HTU21D;64051;46.320;48.028;2023-04-25T12:56:15;16.84;65.77
75471;HTU21D;64051;46.320;48.028;2023-04-25T12:58:47;16.93;65.78
75471;HTU21D;64051;46.320;48.028;2023-04-25T13:01:14;17.02;65.75
75471;HTU21D;64051;46.320;48.028;2023-04-25T13:03:42;17.05;65.69
75471;HTU21D;64051;46.320;48.028;2023-04-25T13:06:09;17.09;65.57
75471;HTU21D;64051;46.320;48.028;2023-04-25T13:08:34;17.10;65.54
75471;HTU21D;64051;46.320;48.028;2023-04-25T13:11:05;17.13;65.61
75471;HTU21D;64051;46.320;48.028;2023-04-25T13:13:34;17.15;65.66
75471;HTU21D;64051;46.320;48.028;2023-04-25T13:16:07;17.21;65.66
75471;HTU21D;64051;46.320;48.028;2023-04-25T13:18:43;17.24;65.59
75471;HTU21D;64051;46.320;48.028;2023-04-25T13:21:11;17.28;65.59
75471;HTU21D;64051;46.320;48.028;2023-04-25T13:23:40;17.29;65.50
75471;HTU21D;64051;46.320;48.028;2023-04-25T13:26:08;17.28;65.48
75471;HTU21D;64051;46.320;48.028;2023-04-25T13:28:34;17.26;65.53
75471;HTU21D;64051;46.320;48.028;2023-04-25T13:31:06;17.31;65.53
75471;HTU21D;64051;46.320;48.028;2023-04-25T13:33:35;17.30;65.46
75471;HTU21D;64051;46.320;48.028;2023-04-25T13:36:01;17.28;65.41
75471;HTU21D;64051;46.320;48.028;2023-04-25T13:38:27;17.26;65.36
75471;HTU21D;64051;46.320;48.028;2023-04-25T13:41:05;17.24;65.33
75471;HTU21D;64051;46.320;48.028;2023-04-25T13:43:35;17.21;65.26
75471;HTU21D;64051;46.320;48.028;2023-04-25T13:46:04;17.19;65.25
75471;HTU21D;64051;46.320;48.028;2023-04-25T13:48:30;17.17;65.24
75471;HTU21D;64051;46.320;48.028;2023-04-25T13:51:02;17.15;65.22
75471;HTU21D;64051;46.320;48.028;2023-04-25T13:53:28;17.13;65.21
75471;HTU21D;64051;46.320;48.028;2023-04-25T13:56:01;17.09;65.20
75471;HTU21D;64051;46.320;48.028;2023-04-25T13:58:30;17.07;65.21
75471;HTU21D;64051;46.320;48.028;2023-04-25T14:00:58;17.06;65.22
75471;HTU21D;64051;46.320;48.028;2023-04-25T14:03:27;17.03;65.22
75471;HTU21D;64051;46.320;48.028;2023-04-25T14:05:56;17.02;65.21
75471;HTU21D;64051;46.320;48.028;2023-04-25T14:08:25;17.01;65.21
75471;HTU21D;64051;46.320;48.028;2023-04-25T14:10:51;16.99;65.21
75471;HTU21D;64051;46.320;48.028;2023-04-25T14:13:17;16.98;65.23
75471;HTU21D;64051;46.320;48.028;2023-04-25T14:15:47;16.95;65.22
75471;HTU21D;64051;46.320;48.028;2023-04-25T14:18:18;16.92;65.24
75471;HTU21D;64051;46.320;48.028;2023-04-25T14:20:45;16.89;65.28
75471;HTU21D;64051;46.320;48.028;2023-04-25T14:23:16;16.84;65.35
75471;HTU21D;64051;46.320;48.028;2023-04-25T14:25:49;16.78;65.43
75471;HTU21D;64051;46.320;48.028;2023-04-25T14:28:21;16.77;65.52
75471;HTU21D;64051;46.320;48.028;2023-04-25T14:30:47;16.75;65.53
75471;HTU21D;64051;46.320;48.028;2023-04-25T14:33:13;16.72;65.53
75471;HTU21D;64051;46.320;48.028;2023-04-25T14:35:46;16.69;65.59
75471;HTU21D;64051;46.320;48.028;2023-04-25T14:38:15;16.61;65.56
75471;HTU21D;64051;46.320;48.028;2023-04-25T14:40:49;16.56;65.64
75471;HTU21D;64051;46.320;48.028;2023-04-25T14:43:24;16.51;65.75
75471;HTU21D;64051;46.320;48.028;2023-04-25T14:45:53;16.49;65.78
75471;HTU21D;64051;46.320;48.028;2023-04-25T14:48:19;16.46;65.82
75471;HTU21D;64051;46.320;48.028;2023-04-25T14:50:48;16.44;65.85
75471;HTU21D;64051;46.320;48.028;2023-04-25T14:53:17;16.43;65.88
75471;HTU21D;64051;46.320;48.028;2023-04-25T14:55:43;16.41;65.93
75471;HTU21D;64051;46.320;48.028;2023-04-25T14:58:09;16.39;65.96
75471;HTU21D;64051;46.320;48.028;2023-04-25T15:00:38;16.36;65.98
75471;HTU21D;64051;46.320;48.028;2023-04-25T15:03:04;16.34;66.01
75471;HTU21D;64051;46.320;48.028;2023-04-25T15:05:31;16.33;66.06
75471;HTU21D;64051;46.320;48.028;2023-04-25T15:07:57;16.32;66.05
75471;HTU21D;64051;46.320;48.028;2023-04-25T15:10:23;16.27;66.04
75471;HTU21D;64051;46.320;48.028;2023-04-25T15:12:49;16.24;66.11
75471;HTU21D;64051;46.320;48.028;2023-04-25T15:15:37;16.22;66.27
75471;HTU21D;64051;46.320;48.028;2023-04-25T15:18:03;16.18;66.15
75471;HTU21D;64051;46.320;48.028;2023-04-25T15:20:29;16.14;66.21
75471;HTU21D;64051;46.320;48.028;2023-04-25T15:22:56;16.13;66.24